KRMY

Details ICAO KRMY (RMY)
Name BROOKS FLD
Region United States
Timezone America/Detroit (UTC-5.0)
Plans Departing 0
Arriving 1
Stats Elevation 941 ft / 287 m (AMSL)
Location 42.251191° -84.955448°
Runways 1
Magnetic Variation 6.089° W
Sunrise 2017-12-16 13:03:55 UTC / 2017-12-16 08:03:55 Local
Sunset 2017-12-16 22:09:59 UTC / 2017-12-16 17:09:59 Local
Advertisement - Login to hide

Runways

ID Width Length Bearing (true) Bearing (mag) Surface Threshold Offset Overrun Length
10 75 ft / 23 m 3,491 ft / 1,064 m 96.63° 102.72° Asphalt 0 ft / 0 m 0 ft / 0 m
28 75 ft / 23 m 3,491 ft / 1,064 m 276.64° 282.73° Asphalt 0 ft / 0 m 0 ft / 0 m

Map

Weather


0- 5 10 15 20 25 30 35+ Temperature / ° C

Clouds and Precipitation
Forecast for 2017-12-17 00:00 UTC. Updated an hour ago

Ground ~20,000 ft ~40,000 ft Winds

METAR

KRMY 162155Z AUTO 16003KT 10SM OVC070 03/M03 A2999 RMK AO2 T00261035

TAF

Not found

Frequencies

Recorded 120.02 MHz AWOS 3
Approach 119.20 MHz KALAMAZOO APP/DEP
Unicom 122.80 MHz CTAF/UNICOM
Warning: Do not use this data for real-world aviation or navigation. No guarantee of current accuracy is given.